sensor_id;sensor_type;location;lat;lon;timestamp;P1;durP1;ratioP1;P2;durP2;ratioP2
16308;SDS011;8263;48.880;9.276;2023-04-08T00:00:45;133.05;;;123.65;;
16308;SDS011;8263;48.880;9.276;2023-04-08T00:03:12;132.07;;;122.68;;
16308;SDS011;8263;48.880;9.276;2023-04-08T00:05:39;131.45;;;122.25;;
16308;SDS011;8263;48.880;9.276;2023-04-08T00:08:05;132.55;;;123.25;;
16308;SDS011;8263;48.880;9.276;2023-04-08T00:10:32;132.90;;;123.40;;
16308;SDS011;8263;48.880;9.276;2023-04-08T00:12:58;130.55;;;121.30;;
16308;SDS011;8263;48.880;9.276;2023-04-08T00:15:25;131.35;;;122.05;;
16308;SDS011;8263;48.880;9.276;2023-04-08T00:17:52;132.00;;;122.70;;
16308;SDS011;8263;48.880;9.276;2023-04-08T00:20:21;131.35;;;121.78;;
16308;SDS011;8263;48.880;9.276;2023-04-08T00:22:47;133.00;;;123.40;;
16308;SDS011;8263;48.880;9.276;2023-04-08T00:25:14;133.45;;;123.95;;
16308;SDS011;8263;48.880;9.276;2023-04-08T00:27:41;133.65;;;124.15;;
16308;SDS011;8263;48.880;9.276;2023-04-08T00:30:07;132.43;;;123.13;;
16308;SDS011;8263;48.880;9.276;2023-04-08T00:32:34;133.80;;;124.32;;
16308;SDS011;8263;48.880;9.276;2023-04-08T00:35:00;131.50;;;122.20;;
16308;SDS011;8263;48.880;9.276;2023-04-08T00:37:29;132.60;;;123.25;;
16308;SDS011;8263;48.880;9.276;2023-04-08T00:39:55;133.50;;;123.97;;
16308;SDS011;8263;48.880;9.276;2023-04-08T00:42:21;132.20;;;122.80;;
16308;SDS011;8263;48.880;9.276;2023-04-08T00:44:48;132.43;;;123.13;;
16308;SDS011;8263;48.880;9.276;2023-04-08T00:47:15;132.43;;;123.03;;
16308;SDS011;8263;48.880;9.276;2023-04-08T00:49:41;133.75;;;124.22;;
16308;SDS011;8263;48.880;9.276;2023-04-08T00:52:07;131.23;;;122.03;;
16308;SDS011;8263;48.880;9.276;2023-04-08T00:54:36;132.27;;;122.90;;
16308;SDS011;8263;48.880;9.276;2023-04-08T00:57:03;132.40;;;122.93;;
16308;SDS011;8263;48.880;9.276;2023-04-08T00:59:29;133.52;;;124.03;;
16308;SDS011;8263;48.880;9.276;2023-04-08T01:01:58;133.15;;;123.75;;
16308;SDS011;8263;48.880;9.276;2023-04-08T01:04:27;132.55;;;123.05;;
16308;SDS011;8263;48.880;9.276;2023-04-08T01:06:56;133.13;;;123.60;;
16308;SDS011;8263;48.880;9.276;2023-04-08T01:09:26;134.57;;;124.88;;
16308;SDS011;8263;48.880;9.276;2023-04-08T01:11:54;132.77;;;123.25;;
16308;SDS011;8263;48.880;9.276;2023-04-08T01:14:22;134.18;;;124.57;;
16308;SDS011;8263;48.880;9.276;2023-04-08T01:16:49;133.98;;;124.32;;
16308;SDS011;8263;48.880;9.276;2023-04-08T01:19:16;133.43;;;123.82;;
16308;SDS011;8263;48.880;9.276;2023-04-08T01:21:47;134.18;;;124.65;;
16308;SDS011;8263;48.880;9.276;2023-04-08T01:24:15;133.18;;;123.50;;
16308;SDS011;8263;48.880;9.276;2023-04-08T01:26:45;132.60;;;123.18;;
16308;SDS011;8263;48.880;9.276;2023-04-08T01:29:12;135.27;;;125.32;;
16308;SDS011;8263;48.880;9.276;2023-04-08T01:31:40;133.70;;;124.15;;
16308;SDS011;8263;48.880;9.276;2023-04-08T01:34:07;134.50;;;124.85;;
16308;SDS011;8263;48.880;9.276;2023-04-08T01:36:36;131.90;;;122.57;;
16308;SDS011;8263;48.880;9.276;2023-04-08T01:39:02;133.13;;;123.57;;
16308;SDS011;8263;48.880;9.276;2023-04-08T01:41:31;135.23;;;125.45;;
16308;SDS011;8263;48.880;9.276;2023-04-08T01:44:00;134.15;;;124.65;;
16308;SDS011;8263;48.880;9.276;2023-04-08T01:46:27;137.73;;;127.68;;
16308;SDS011;8263;48.880;9.276;2023-04-08T01:48:54;134.10;;;124.50;;
16308;SDS011;8263;48.880;9.276;2023-04-08T01:51:21;132.15;;;122.63;;
16308;SDS011;8263;48.880;9.276;2023-04-08T01:53:49;134.98;;;125.10;;
16308;SDS011;8263;48.880;9.276;2023-04-08T01:56:15;135.27;;;125.53;;
16308;SDS011;8263;48.880;9.276;2023-04-08T01:58:44;133.90;;;124.40;;
16308;SDS011;8263;48.880;9.276;2023-04-08T02:01:13;134.10;;;124.38;;
16308;SDS011;8263;48.880;9.276;2023-04-08T02:03:40;134.98;;;125.15;;
16308;SDS011;8263;48.880;9.276;2023-04-08T02:06:07;135.15;;;125.43;;
16308;SDS011;8263;48.880;9.276;2023-04-08T02:08:34;136.00;;;126.10;;
16308;SDS011;8263;48.880;9.276;2023-04-08T02:11:00;133.98;;;124.45;;
16308;SDS011;8263;48.880;9.276;2023-04-08T02:13:27;132.50;;;123.00;;
16308;SDS011;8263;48.880;9.276;2023-04-08T02:15:56;133.38;;;123.90;;
16308;SDS011;8263;48.880;9.276;2023-04-08T02:18:25;135.32;;;125.25;;
16308;SDS011;8263;48.880;9.276;2023-04-08T02:20:52;134.10;;;124.53;;
16308;SDS011;8263;48.880;9.276;2023-04-08T02:23:21;135.93;;;126.03;;
16308;SDS011;8263;48.880;9.276;2023-04-08T02:25:49;132.95;;;123.32;;
16308;SDS011;8263;48.880;9.276;2023-04-08T02:28:16;134.25;;;124.55;;
16308;SDS011;8263;48.880;9.276;2023-04-08T02:30:45;133.88;;;124.30;;
16308;SDS011;8263;48.880;9.276;2023-04-08T02:33:12;134.23;;;124.70;;
16308;SDS011;8263;48.880;9.276;2023-04-08T02:35:40;134.82;;;125.07;;
16308;SDS011;8263;48.880;9.276;2023-04-08T02:38:07;133.77;;;124.22;;
16308;SDS011;8263;48.880;9.276;2023-04-08T02:40:34;134.40;;;124.80;;
16308;SDS011;8263;48.880;9.276;2023-04-08T02:43:01;136.32;;;126.40;;
16308;SDS011;8263;48.880;9.276;2023-04-08T02:45:29;133.15;;;123.68;;
16308;SDS011;8263;48.880;9.276;2023-04-08T02:47:56;135.18;;;125.47;;
16308;SDS011;8263;48.880;9.276;2023-04-08T02:50:22;133.68;;;124.00;;
16308;SDS011;8263;48.880;9.276;2023-04-08T02:52:50;132.02;;;122.70;;
16308;SDS011;8263;48.880;9.276;2023-04-08T02:55:16;133.63;;;123.97;;
16308;SDS011;8263;48.880;9.276;2023-04-08T02:57:43;133.23;;;123.65;;
16308;SDS011;8263;48.880;9.276;2023-04-08T03:00:09;133.02;;;123.22;;
16308;SDS011;8263;48.880;9.276;2023-04-08T03:02:36;133.77;;;124.03;;
16308;SDS011;8263;48.880;9.276;2023-04-08T03:05:02;135.60;;;125.88;;
16308;SDS011;8263;48.880;9.276;2023-04-08T03:07:29;136.60;;;126.60;;
16308;SDS011;8263;48.880;9.276;2023-04-08T03:09:57;135.05;;;125.35;;
16308;SDS011;8263;48.880;9.276;2023-04-08T03:12:23;132.45;;;122.97;;
16308;SDS011;8263;48.880;9.276;2023-04-08T03:14:51;134.95;;;125.35;;
16308;SDS011;8263;48.880;9.276;2023-04-08T03:17:18;134.75;;;125.05;;
16308;SDS011;8263;48.880;9.276;2023-04-08T03:19:44;136.30;;;126.55;;
16308;SDS011;8263;48.880;9.276;2023-04-08T03:22:11;134.50;;;124.82;;
16308;SDS011;8263;48.880;9.276;2023-04-08T03:24:38;136.55;;;126.75;;
16308;SDS011;8263;48.880;9.276;2023-04-08T03:27:05;135.60;;;125.90;;
16308;SDS011;8263;48.880;9.276;2023-04-08T03:29:32;134.15;;;124.57;;
16308;SDS011;8263;48.880;9.276;2023-04-08T03:31:58;134.82;;;125.18;;
16308;SDS011;8263;48.880;9.276;2023-04-08T03:34:25;134.73;;;125.00;;
16308;SDS011;8263;48.880;9.276;2023-04-08T03:36:51;136.32;;;126.00;;
16308;SDS011;8263;48.880;9.276;2023-04-08T03:39:18;134.98;;;125.25;;
16308;SDS011;8263;48.880;9.276;2023-04-08T03:41:44;136.23;;;126.43;;
16308;SDS011;8263;48.880;9.276;2023-04-08T03:44:12;135.05;;;125.15;;
16308;SDS011;8263;48.880;9.276;2023-04-08T03:46:38;136.50;;;126.32;;
16308;SDS011;8263;48.880;9.276;2023-04-08T03:49:05;136.82;;;126.78;;
16308;SDS011;8263;48.880;9.276;2023-04-08T03:51:31;136.75;;;126.82;;
16308;SDS011;8263;48.880;9.276;2023-04-08T03:53:58;135.73;;;125.90;;
16308;SDS011;8263;48.880;9.276;2023-04-08T03:56:24;136.95;;;126.75;;
16308;SDS011;8263;48.880;9.276;2023-04-08T03:58:51;136.35;;;126.40;;
16308;SDS011;8263;48.880;9.276;2023-04-08T04:01:19;136.05;;;126.18;;
16308;SDS011;8263;48.880;9.276;2023-04-08T04:03:45;136.20;;;126.10;;
16308;SDS011;8263;48.880;9.276;2023-04-08T04:06:11;137.02;;;126.88;;
16308;SDS011;8263;48.880;9.276;2023-04-08T04:08:38;134.75;;;124.82;;
16308;SDS011;8263;48.880;9.276;2023-04-08T04:11:04;136.60;;;126.78;;
16308;SDS011;8263;48.880;9.276;2023-04-08T04:13:30;135.30;;;125.47;;
16308;SDS011;8263;48.880;9.276;2023-04-08T04:15:57;135.32;;;125.07;;
16308;SDS011;8263;48.880;9.276;2023-04-08T04:18:24;136.07;;;126.38;;
16308;SDS011;8263;48.880;9.276;2023-04-08T04:20:51;134.70;;;125.03;;
16308;SDS011;8263;48.880;9.276;2023-04-08T04:23:17;136.70;;;126.78;;
16308;SDS011;8263;48.880;9.276;2023-04-08T04:25:43;135.10;;;125.43;;
16308;SDS011;8263;48.880;9.276;2023-04-08T04:28:10;136.73;;;126.68;;
16308;SDS011;8263;48.880;9.276;2023-04-08T04:30:36;136.43;;;126.70;;
16308;SDS011;8263;48.880;9.276;2023-04-08T04:33:03;135.77;;;126.07;;
16308;SDS011;8263;48.880;9.276;2023-04-08T04:35:31;136.98;;;126.97;;
16308;SDS011;8263;48.880;9.276;2023-04-08T04:37:57;137.20;;;126.82;;
16308;SDS011;8263;48.880;9.276;2023-04-08T04:40:24;136.32;;;126.45;;
16308;SDS011;8263;48.880;9.276;2023-04-08T04:42:51;134.82;;;125.03;;
16308;SDS011;8263;48.880;9.276;2023-04-08T04:45:17;136.82;;;127.05;;
16308;SDS011;8263;48.880;9.276;2023-04-08T04:47:43;136.73;;;126.68;;
16308;SDS011;8263;48.880;9.276;2023-04-08T04:50:10;137.50;;;127.40;;
16308;SDS011;8263;48.880;9.276;2023-04-08T04:52:38;136.43;;;126.60;;
16308;SDS011;8263;48.880;9.276;2023-04-08T04:55:05;134.38;;;124.63;;
16308;SDS011;8263;48.880;9.276;2023-04-08T04:57:32;136.27;;;126.43;;
16308;SDS011;8263;48.880;9.276;2023-04-08T04:59:58;137.25;;;127.32;;
16308;SDS011;8263;48.880;9.276;2023-04-08T05:02:25;136.45;;;126.75;;
16308;SDS011;8263;48.880;9.276;2023-04-08T05:04:51;137.23;;;127.35;;
16308;SDS011;8263;48.880;9.276;2023-04-08T05:07:19;137.45;;;127.40;;
16308;SDS011;8263;48.880;9.276;2023-04-08T05:09:47;135.27;;;125.38;;
16308;SDS011;8263;48.880;9.276;2023-04-08T05:12:13;134.27;;;124.60;;
16308;SDS011;8263;48.880;9.276;2023-04-08T05:14:40;132.85;;;123.35;;
16308;SDS011;8263;48.880;9.276;2023-04-08T05:17:06;133.90;;;124.30;;
16308;SDS011;8263;48.880;9.276;2023-04-08T05:19:33;136.75;;;126.93;;
16308;SDS011;8263;48.880;9.276;2023-04-08T05:21:59;137.23;;;127.40;;
16308;SDS011;8263;48.880;9.276;2023-04-08T05:24:25;135.48;;;125.88;;
16308;SDS011;8263;48.880;9.276;2023-04-08T05:26:53;136.95;;;127.10;;
16308;SDS011;8263;48.880;9.276;2023-04-08T05:29:21;136.70;;;126.85;;
16308;SDS011;8263;48.880;9.276;2023-04-08T05:31:48;138.88;;;128.68;;
16308;SDS011;8263;48.880;9.276;2023-04-08T05:34:14;137.60;;;127.60;;
16308;SDS011;8263;48.880;9.276;2023-04-08T05:36:46;137.55;;;127.63;;
16308;SDS011;8263;48.880;9.276;2023-04-08T05:39:15;138.38;;;128.27;;
16308;SDS011;8263;48.880;9.276;2023-04-08T05:41:42;139.10;;;128.90;;
16308;SDS011;8263;48.880;9.276;2023-04-08T05:44:10;137.07;;;127.13;;
16308;SDS011;8263;48.880;9.276;2023-04-08T05:46:36;136.57;;;126.72;;
16308;SDS011;8263;48.880;9.276;2023-04-08T05:49:03;136.63;;;126.68;;
16308;SDS011;8263;48.880;9.276;2023-04-08T05:51:29;137.50;;;127.57;;
16308;SDS011;8263;48.880;9.276;2023-04-08T05:53:55;138.88;;;128.75;;
16308;SDS011;8263;48.880;9.276;2023-04-08T05:56:22;139.10;;;128.70;;
16308;SDS011;8263;48.880;9.276;2023-04-08T05:58:48;138.18;;;128.05;;
16308;SDS011;8263;48.880;9.276;2023-04-08T06:01:16;138.48;;;128.23;;
16308;SDS011;8263;48.880;9.276;2023-04-08T06:03:42;139.85;;;129.45;;
16308;SDS011;8263;48.880;9.276;2023-04-08T06:06:09;137.95;;;127.75;;
16308;SDS011;8263;48.880;9.276;2023-04-08T06:08:36;138.15;;;128.05;;
16308;SDS011;8263;48.880;9.276;2023-04-08T06:11:03;136.80;;;126.78;;
16308;SDS011;8263;48.880;9.276;2023-04-08T06:13:30;138.13;;;128.02;;
16308;SDS011;8263;48.880;9.276;2023-04-08T06:15:56;137.43;;;127.43;;
16308;SDS011;8263;48.880;9.276;2023-04-08T06:18:24;137.13;;;127.13;;
16308;SDS011;8263;48.880;9.276;2023-04-08T06:20:50;136.85;;;126.97;;
16308;SDS011;8263;48.880;9.276;2023-04-08T06:23:18;137.85;;;127.70;;
16308;SDS011;8263;48.880;9.276;2023-04-08T06:25:44;138.52;;;128.32;;
16308;SDS011;8263;48.880;9.276;2023-04-08T06:28:11;138.85;;;128.57;;
16308;SDS011;8263;48.880;9.276;2023-04-08T06:30:38;137.07;;;126.97;;
16308;SDS011;8263;48.880;9.276;2023-04-08T06:33:04;135.65;;;125.78;;
16308;SDS011;8263;48.880;9.276;2023-04-08T06:35:32;140.45;;;129.75;;
16308;SDS011;8263;48.880;9.276;2023-04-08T06:37:58;138.68;;;128.18;;
16308;SDS011;8263;48.880;9.276;2023-04-08T06:40:24;139.07;;;128.68;;
16308;SDS011;8263;48.880;9.276;2023-04-08T06:42:51;138.85;;;128.68;;
16308;SDS011;8263;48.880;9.276;2023-04-08T06:45:18;136.40;;;126.45;;
16308;SDS011;8263;48.880;9.276;2023-04-08T06:47:44;140.82;;;130.25;;
16308;SDS011;8263;48.880;9.276;2023-04-08T06:50:11;138.50;;;128.40;;
16308;SDS011;8263;48.880;9.276;2023-04-08T06:52:38;137.88;;;127.63;;
16308;SDS011;8263;48.880;9.276;2023-04-08T06:55:05;139.73;;;129.32;;
16308;SDS011;8263;48.880;9.276;2023-04-08T06:57:31;139.55;;;129.23;;
16308;SDS011;8263;48.880;9.276;2023-04-08T06:59:58;138.32;;;127.95;;
16308;SDS011;8263;48.880;9.276;2023-04-08T07:02:25;140.25;;;129.90;;
16308;SDS011;8263;48.880;9.276;2023-04-08T07:04:51;139.63;;;129.25;;
16308;SDS011;8263;48.880;9.276;2023-04-08T07:07:18;140.25;;;129.65;;
16308;SDS011;8263;48.880;9.276;2023-04-08T07:09:45;140.90;;;130.48;;
16308;SDS011;8263;48.880;9.276;2023-04-08T07:12:12;139.77;;;129.43;;
16308;SDS011;8263;48.880;9.276;2023-04-08T07:14:38;138.40;;;128.15;;
16308;SDS011;8263;48.880;9.276;2023-04-08T07:17:05;137.80;;;127.68;;
16308;SDS011;8263;48.880;9.276;2023-04-08T07:19:31;138.60;;;128.43;;
16308;SDS011;8263;48.880;9.276;2023-04-08T07:21:57;135.63;;;125.72;;
16308;SDS011;8263;48.880;9.276;2023-04-08T07:24:24;140.32;;;129.88;;
16308;SDS011;8263;48.880;9.276;2023-04-08T07:26:52;139.82;;;129.45;;
16308;SDS011;8263;48.880;9.276;2023-04-08T07:29:20;137.45;;;127.47;;
16308;SDS011;8263;48.880;9.276;2023-04-08T07:31:46;138.68;;;128.40;;
16308;SDS011;8263;48.880;9.276;2023-04-08T07:34:12;137.23;;;126.90;;
16308;SDS011;8263;48.880;9.276;2023-04-08T07:36:39;137.98;;;127.85;;
16308;SDS011;8263;48.880;9.276;2023-04-08T07:39:05;140.40;;;129.82;;
16308;SDS011;8263;48.880;9.276;2023-04-08T07:41:32;138.52;;;128.30;;
16308;SDS011;8263;48.880;9.276;2023-04-08T07:44:00;139.70;;;129.43;;
16308;SDS011;8263;48.880;9.276;2023-04-08T07:46:26;138.85;;;128.75;;
16308;SDS011;8263;48.880;9.276;2023-04-08T07:48:54;137.75;;;127.70;;
16308;SDS011;8263;48.880;9.276;2023-04-08T07:51:21;137.38;;;127.22;;
16308;SDS011;8263;48.880;9.276;2023-04-08T07:53:47;138.70;;;128.40;;
16308;SDS011;8263;48.880;9.276;2023-04-08T07:56:14;137.63;;;127.43;;
16308;SDS011;8263;48.880;9.276;2023-04-08T07:58:42;136.90;;;126.97;;
16308;SDS011;8263;48.880;9.276;2023-04-08T08:01:16;136.70;;;126.80;;
16308;SDS011;8263;48.880;9.276;2023-04-08T08:03:43;137.23;;;127.22;;
16308;SDS011;8263;48.880;9.276;2023-04-08T08:06:13;136.52;;;126.70;;
16308;SDS011;8263;48.880;9.276;2023-04-08T08:08:40;137.05;;;127.03;;
16308;SDS011;8263;48.880;9.276;2023-04-08T08:11:06;135.10;;;125.40;;
16308;SDS011;8263;48.880;9.276;2023-04-08T08:13:32;137.88;;;127.78;;
16308;SDS011;8263;48.880;9.276;2023-04-08T08:15:59;135.52;;;125.47;;
16308;SDS011;8263;48.880;9.276;2023-04-08T08:18:27;135.65;;;125.65;;
16308;SDS011;8263;48.880;9.276;2023-04-08T08:20:53;136.93;;;126.78;;
16308;SDS011;8263;48.880;9.276;2023-04-08T08:23:20;137.82;;;127.63;;
16308;SDS011;8263;48.880;9.276;2023-04-08T08:25:46;139.00;;;128.48;;
16308;SDS011;8263;48.880;9.276;2023-04-08T08:28:13;136.88;;;127.05;;
16308;SDS011;8263;48.880;9.276;2023-04-08T08:30:39;136.35;;;126.40;;
16308;SDS011;8263;48.880;9.276;2023-04-08T08:33:05;137.25;;;127.18;;
16308;SDS011;8263;48.880;9.276;2023-04-08T08:35:33;135.02;;;125.10;;
16308;SDS011;8263;48.880;9.276;2023-04-08T08:38:00;135.38;;;125.57;;
16308;SDS011;8263;48.880;9.276;2023-04-08T08:40:26;134.98;;;125.18;;
16308;SDS011;8263;48.880;9.276;2023-04-08T08:42:53;134.73;;;125.00;;
16308;SDS011;8263;48.880;9.276;2023-04-08T08:45:19;134.02;;;124.15;;
16308;SDS011;8263;48.880;9.276;2023-04-08T08:47:46;136.77;;;126.65;;
16308;SDS011;8263;48.880;9.276;2023-04-08T08:50:15;136.68;;;126.75;;
16308;SDS011;8263;48.880;9.276;2023-04-08T08:52:48;133.85;;;124.10;;
16308;SDS011;8263;48.880;9.276;2023-04-08T08:55:15;135.60;;;125.35;;
16308;SDS011;8263;48.880;9.276;2023-04-08T08:57:43;133.90;;;124.13;;
16308;SDS011;8263;48.880;9.276;2023-04-08T09:00:09;132.50;;;123.10;;
16308;SDS011;8263;48.880;9.276;2023-04-08T09:02:36;136.75;;;126.53;;
16308;SDS011;8263;48.880;9.276;2023-04-08T09:05:03;135.07;;;125.28;;
16308;SDS011;8263;48.880;9.276;2023-04-08T09:07:29;135.48;;;125.25;;
16308;SDS011;8263;48.880;9.276;2023-04-08T09:09:58;134.40;;;124.63;;
16308;SDS011;8263;48.880;9.276;2023-04-08T09:12:24;132.50;;;122.90;;
16308;SDS011;8263;48.880;9.276;2023-04-08T09:15:01;135.18;;;125.32;;
16308;SDS011;8263;48.880;9.276;2023-04-08T09:17:31;133.07;;;123.57;;
16308;SDS011;8263;48.880;9.276;2023-04-08T09:20:05;133.60;;;123.72;;
16308;SDS011;8263;48.880;9.276;2023-04-08T09:22:33;134.70;;;124.93;;
16308;SDS011;8263;48.880;9.276;2023-04-08T09:25:01;131.32;;;121.93;;
16308;SDS011;8263;48.880;9.276;2023-04-08T09:27:47;133.10;;;123.57;;
16308;SDS011;8263;48.880;9.276;2023-04-08T09:30:13;134.15;;;124.38;;
16308;SDS011;8263;48.880;9.276;2023-04-08T09:32:46;131.68;;;122.13;;
16308;SDS011;8263;48.880;9.276;2023-04-08T09:35:13;134.48;;;124.68;;
16308;SDS011;8263;48.880;9.276;2023-04-08T09:37:41;132.70;;;123.25;;
16308;SDS011;8263;48.880;9.276;2023-04-08T09:40:09;132.85;;;123.30;;
16308;SDS011;8263;48.880;9.276;2023-04-08T09:42:36;132.38;;;122.65;;
16308;SDS011;8263;48.880;9.276;2023-04-08T09:45:05;131.15;;;121.70;;
16308;SDS011;8263;48.880;9.276;2023-04-08T09:47:32;133.27;;;123.50;;
16308;SDS011;8263;48.880;9.276;2023-04-08T09:50:03;132.85;;;123.35;;
16308;SDS011;8263;48.880;9.276;2023-04-08T09:52:33;133.95;;;124.22;;
16308;SDS011;8263;48.880;9.276;2023-04-08T09:55:04;132.55;;;123.05;;
16308;SDS011;8263;48.880;9.276;2023-04-08T09:57:39;130.82;;;121.35;;
16308;SDS011;8263;48.880;9.276;2023-04-08T10:00:08;132.40;;;122.90;;
16308;SDS011;8263;48.880;9.276;2023-04-08T10:02:36;131.50;;;122.15;;
16308;SDS011;8263;48.880;9.276;2023-04-08T10:05:06;131.43;;;121.93;;
16308;SDS011;8263;48.880;9.276;2023-04-08T10:07:33;129.88;;;120.55;;
16308;SDS011;8263;48.880;9.276;2023-04-08T10:09:59;130.80;;;121.30;;
16308;SDS011;8263;48.880;9.276;2023-04-08T10:12:27;129.85;;;120.63;;
16308;SDS011;8263;48.880;9.276;2023-04-08T10:17:36;130.98;;;121.57;;
16308;SDS011;8263;48.880;9.276;2023-04-08T10:20:03;130.77;;;121.25;;
16308;SDS011;8263;48.880;9.276;2023-04-08T10:22:44;127.32;;;118.32;;
16308;SDS011;8263;48.880;9.276;2023-04-08T10:27:59;130.65;;;121.30;;
16308;SDS011;8263;48.880;9.276;2023-04-08T10:30:40;129.23;;;119.80;;
16308;SDS011;8263;48.880;9.276;2023-04-08T10:33:10;127.63;;;118.63;;
16308;SDS011;8263;48.880;9.276;2023-04-08T10:35:37;129.10;;;120.05;;
16308;SDS011;8263;48.880;9.276;2023-04-08T10:38:06;130.13;;;120.82;;
16308;SDS011;8263;48.880;9.276;2023-04-08T10:40:34;126.30;;;117.43;;
16308;SDS011;8263;48.880;9.276;2023-04-08T10:43:01;128.30;;;119.30;;
16308;SDS011;8263;48.880;9.276;2023-04-08T10:45:28;128.55;;;119.45;;
16308;SDS011;8263;48.880;9.276;2023-04-08T10:47:54;130.18;;;120.85;;
16308;SDS011;8263;48.880;9.276;2023-04-08T10:50:22;130.25;;;121.07;;
16308;SDS011;8263;48.880;9.276;2023-04-08T10:52:48;130.20;;;120.85;;
16308;SDS011;8263;48.880;9.276;2023-04-08T10:55:19;129.23;;;119.82;;
16308;SDS011;8263;48.880;9.276;2023-04-08T10:57:47;127.72;;;118.80;;
16308;SDS011;8263;48.880;9.276;2023-04-08T11:00:16;128.77;;;119.38;;
16308;SDS011;8263;48.880;9.276;2023-04-08T11:02:43;128.05;;;119.15;;
16308;SDS011;8263;48.880;9.276;2023-04-08T11:05:09;129.10;;;120.00;;
16308;SDS011;8263;48.880;9.276;2023-04-08T11:07:40;127.88;;;118.82;;
16308;SDS011;8263;48.880;9.276;2023-04-08T11:10:06;128.07;;;119.03;;
16308;SDS011;8263;48.880;9.276;2023-04-08T11:12:33;129.27;;;120.07;;
16308;SDS011;8263;48.880;9.276;2023-04-08T11:15:00;129.00;;;119.90;;
16308;SDS011;8263;48.880;9.276;2023-04-08T11:17:26;130.52;;;121.13;;
16308;SDS011;8263;48.880;9.276;2023-04-08T11:19:54;132.18;;;122.57;;
16308;SDS011;8263;48.880;9.276;2023-04-08T11:22:20;126.78;;;117.93;;
16308;SDS011;8263;48.880;9.276;2023-04-08T11:24:49;129.90;;;120.68;;
16308;SDS011;8263;48.880;9.276;2023-04-08T11:27:16;128.90;;;119.72;;
16308;SDS011;8263;48.880;9.276;2023-04-08T11:29:42;127.88;;;118.78;;
16308;SDS011;8263;48.880;9.276;2023-04-08T11:32:09;128.45;;;119.40;;
16308;SDS011;8263;48.880;9.276;2023-04-08T11:34:37;128.15;;;119.13;;
16308;SDS011;8263;48.880;9.276;2023-04-08T11:37:04;127.32;;;118.43;;
16308;SDS011;8263;48.880;9.276;2023-04-08T11:39:30;128.20;;;119.28;;
16308;SDS011;8263;48.880;9.276;2023-04-08T11:41:58;127.40;;;118.25;;
16308;SDS011;8263;48.880;9.276;2023-04-08T11:44:29;127.18;;;118.28;;
16308;SDS011;8263;48.880;9.276;2023-04-08T11:46:55;128.52;;;119.40;;
16308;SDS011;8263;48.880;9.276;2023-04-08T11:49:22;130.30;;;120.93;;
16308;SDS011;8263;48.880;9.276;2023-04-08T11:51:55;127.70;;;118.70;;
16308;SDS011;8263;48.880;9.276;2023-04-08T11:54:26;129.02;;;119.82;;
16308;SDS011;8263;48.880;9.276;2023-04-08T11:56:53;130.25;;;120.93;;
16308;SDS011;8263;48.880;9.276;2023-04-08T11:59:21;129.63;;;120.53;;
16308;SDS011;8263;48.880;9.276;2023-04-08T12:01:47;127.10;;;118.07;;
16308;SDS011;8263;48.880;9.276;2023-04-08T12:04:14;129.57;;;120.18;;
16308;SDS011;8263;48.880;9.276;2023-04-08T12:06:40;129.95;;;120.75;;
16308;SDS011;8263;48.880;9.276;2023-04-08T12:09:07;128.93;;;119.63;;
16308;SDS011;8263;48.880;9.276;2023-04-08T12:11:34;129.88;;;120.75;;
16308;SDS011;8263;48.880;9.276;2023-04-08T12:14:00;130.77;;;121.25;;
16308;SDS011;8263;48.880;9.276;2023-04-08T12:16:28;129.88;;;120.78;;
16308;SDS011;8263;48.880;9.276;2023-04-08T12:18:54;127.35;;;118.32;;
16308;SDS011;8263;48.880;9.276;2023-04-08T12:21:21;128.45;;;119.45;;
16308;SDS011;8263;48.880;9.276;2023-04-08T12:23:47;129.95;;;120.85;;
16308;SDS011;8263;48.880;9.276;2023-04-08T12:26:13;127.55;;;118.55;;
16308;SDS011;8263;48.880;9.276;2023-04-08T12:28:40;127.53;;;118.63;;
16308;SDS011;8263;48.880;9.276;2023-04-08T12:31:06;128.52;;;119.50;;
16308;SDS011;8263;48.880;9.276;2023-04-08T12:33:34;129.25;;;120.00;;
16308;SDS011;8263;48.880;9.276;2023-04-08T12:36:00;128.30;;;119.22;;
16308;SDS011;8263;48.880;9.276;2023-04-08T12:38:27;130.63;;;121.32;;
16308;SDS011;8263;48.880;9.276;2023-04-08T12:40:53;128.13;;;119.03;;
16308;SDS011;8263;48.880;9.276;2023-04-08T12:43:20;127.00;;;118.10;;
16308;SDS011;8263;48.880;9.276;2023-04-08T12:45:50;129.93;;;120.65;;
16308;SDS011;8263;48.880;9.276;2023-04-08T12:48:16;128.50;;;119.38;;
16308;SDS011;8263;48.880;9.276;2023-04-08T12:50:44;129.40;;;120.25;;
16308;SDS011;8263;48.880;9.276;2023-04-08T12:53:11;127.97;;;118.95;;
16308;SDS011;8263;48.880;9.276;2023-04-08T12:55:37;129.68;;;120.60;;
16308;SDS011;8263;48.880;9.276;2023-04-08T12:58:03;128.13;;;119.13;;
16308;SDS011;8263;48.880;9.276;2023-04-08T13:00:30;128.88;;;119.68;;
16308;SDS011;8263;48.880;9.276;2023-04-08T13:02:57;125.72;;;116.97;;
16308;SDS011;8263;48.880;9.276;2023-04-08T13:05:23;125.75;;;116.45;;
16308;SDS011;8263;48.880;9.276;2023-04-08T13:07:51;127.05;;;118.00;;
16308;SDS011;8263;48.880;9.276;2023-04-08T13:10:17;125.28;;;116.03;;
16308;SDS011;8263;48.880;9.276;2023-04-08T13:12:44;129.07;;;119.78;;
16308;SDS011;8263;48.880;9.276;2023-04-08T13:15:11;127.22;;;118.32;;
16308;SDS011;8263;48.880;9.276;2023-04-08T13:17:37;130.35;;;121.03;;
16308;SDS011;8263;48.880;9.276;2023-04-08T13:20:04;130.85;;;121.45;;
16308;SDS011;8263;48.880;9.276;2023-04-08T13:22:33;127.60;;;118.60;;
16308;SDS011;8263;48.880;9.276;2023-04-08T13:25:01;128.43;;;119.28;;
16308;SDS011;8263;48.880;9.276;2023-04-08T13:27:30;129.63;;;120.43;;
16308;SDS011;8263;48.880;9.276;2023-04-08T13:29:56;129.30;;;119.78;;
16308;SDS011;8263;48.880;9.276;2023-04-08T13:32:23;129.23;;;120.07;;
16308;SDS011;8263;48.880;9.276;2023-04-08T13:34:49;128.02;;;119.10;;
16308;SDS011;8263;48.880;9.276;2023-04-08T13:37:15;127.97;;;118.97;;
16308;SDS011;8263;48.880;9.276;2023-04-08T13:39:42;128.82;;;119.72;;
16308;SDS011;8263;48.880;9.276;2023-04-08T13:42:10;127.03;;;118.20;;
16308;SDS011;8263;48.880;9.276;2023-04-08T13:44:36;126.35;;;117.53;;
16308;SDS011;8263;48.880;9.276;2023-04-08T13:47:03;124.78;;;116.18;;
16308;SDS011;8263;48.880;9.276;2023-04-08T13:49:29;125.32;;;116.55;;
16308;SDS011;8263;48.880;9.276;2023-04-08T13:51:56;127.72;;;118.72;;
16308;SDS011;8263;48.880;9.276;2023-04-08T13:54:22;125.35;;;116.65;;
16308;SDS011;8263;48.880;9.276;2023-04-08T13:56:48;127.22;;;118.32;;
16308;SDS011;8263;48.880;9.276;2023-04-08T13:59:16;126.03;;;117.22;;
16308;SDS011;8263;48.880;9.276;2023-04-08T14:01:43;126.65;;;117.55;;
16308;SDS011;8263;48.880;9.276;2023-04-08T14:04:09;126.55;;;117.57;;
16308;SDS011;8263;48.880;9.276;2023-04-08T14:06:36;127.13;;;118.25;;
16308;SDS011;8263;48.880;9.276;2023-04-08T14:09:02;126.30;;;117.50;;
16308;SDS011;8263;48.880;9.276;2023-04-08T14:11:28;127.72;;;118.80;;
16308;SDS011;8263;48.880;9.276;2023-04-08T14:13:55;126.88;;;118.07;;